Terminal Aerodrome Forecast
Issued by NWS St Louis, MO

Home | Current Version | Previous Version | Graphics & Text | Print | Product List | Glossary On
Versions: 1 2 3 4 5 6 7 8 9 10 11 12 13 14 15 16 17 18 19 20 21 22 23 24 25
332
FTUS43 KLSX 101724
TAFSTL
TAF
KSTL 101724Z 1018/1124 28007KT P6SM VCSH OVC050
     FM101900 26005KT 2SM -SN OVC015
      TEMPO 1019/1022 1SM -SN OVC010
     FM102300 VRB03KT 3SM -SN OVC025
     FM110600 06005KT P6SM BKN025
     FM111100 05006KT P6SM BKN035=

USA.gov is the U.S. government's official web portal to all federal, state and local government web resources and services.